Waldorf, MN (56091)

9:56 AM CDT on July 30, 2016 (GMT -0500)
Blue Valley Sod | | Change Station

Elev 1014 ft 43.94 °N, 93.83 °W | Updated 11 minutes ago

Mostly Cloudy
Mostly Cloudy
71.0 °F
Feels Like 72 °F
N
0.0
Wind Variable Wind from NNE
Gusts 0.0 mph

Today
High -- | Low -- °F
--% Chance of Precip.
Yesterday
High -- | Low -- °F
Precip. -- in
Pressure 30.05 in
Visibility 10.0 miles
Clouds Mostly Cloudy 7000 ft
Heat Index 72 °F
Dew Point 63 °F
Humidity 78%
Rainfall 0.00 in
Snow Depth Not available.
6:01 AM 8:40 PM
Waning Crescent, 13% visible
METAR KACQ 301435Z AUTO 09004KT 10SM BKN070 21/18 A3005 RMK AO2
Pressure 30.05 in
Visibility 10.0 miles
Clouds Mostly Cloudy 7000 ft
Heat Index 72 °F
Dew Point 63 °F
Humidity 78%
Rainfall 0.00 in
Snow Depth Not available.
6:01 AM 8:40 PM
Waning Crescent, 13% visible
METAR KACQ 301435Z AUTO 09004KT 10SM BKN070 21/18 A3005 RMK AO2

10-Day Weather Forecast

Almanac

Astronomy

Jul. 30, 2016 Rise Set
Actual Time
Civil Twilight
Nautical Twilight
Astronomical Twilight
Moon
Length of Visible Light
Length of Day
Tomorrow will be .
, % of the Moon is Illuminated

Today's Extremes

State Highs State Lows

Community

WunderPhotos

Upload Photos

1,928,565 photos uploaded!

WunderBlog® & News

Nearby

Air Quality

  Air Quality AQ Index Pollutant
Not available.

Snow Depth

Station Depth Elevation

Earthquake Activity

City Distance Mag. Time & Date
Minimum magnitude displayed is 2.5.

Coastal Water Temperatures

Place Temperature

Stations

Nearby Weather Stations

Station Location Temp. Windchill Dew Point Humidity Wind Precip. Elev Updated Type
                   

Watches & Warnings

There are currently no watches in effect.